Time;durP1;ratioP1;P1;durP2;ratioP2;P2;SDS_P1;SDS_P2;PMS_P1;PMS_P2;Temp;Humidity;BMP_temperature;BMP_pressure;BME280_temperature;BME280_humidity;BME280_pressure;Samples;Min_cycle;Max_cycle;Signal;HPM_P1;HPM_P2
2023/10/09 00:02:09;;;;;;;4.30;4.00;;;;;;;10.38;100.00;97588.53;4990576;28;20209;-55
2023/10/09 00:04:40;;;;;;;4.80;4.40;;;;;;;10.39;100.00;97582.22;4998784;28;20205;-59
2023/10/09 00:07:10;;;;;;;4.00;3.80;;;;;;;10.39;100.00;97577.72;4993640;28;20228;-55
2023/10/09 00:09:46;;;;;;;4.30;4.00;;;;;;;10.39;100.00;97580.38;4991305;28;20712;-57
2023/10/09 00:12:16;;;;;;;4.30;4.00;;;;;;;10.39;100.00;97572.44;4923332;28;20209;-59
2023/10/09 00:14:47;;;;;;;4.83;4.53;;;;;;;10.38;100.00;97564.69;4995328;28;20204;-60
2023/10/09 00:17:29;;;;;;;4.23;4.00;;;;;;;10.42;100.00;97560.72;4991043;28;20204;-58
2023/10/09 00:20:08;;;;;;;4.97;4.60;;;;;;;10.41;100.00;97559.88;4994699;28;20320;-58
2023/10/09 00:22:41;;;;;;;4.53;4.23;;;;;;;10.46;100.00;97555.91;4996780;28;20272;-59
2023/10/09 00:25:12;;;;;;;5.37;4.97;;;;;;;10.48;100.00;97554.72;4964992;28;20669;-60
2023/10/09 00:27:46;;;;;;;5.13;4.73;;;;;;;10.47;100.00;97558.38;4984064;28;20213;-55
2023/10/09 00:30:17;;;;;;;4.93;4.63;;;;;;;10.47;100.00;97562.84;4991292;28;20227;-59
2023/10/09 00:32:51;;;;;;;4.87;4.57;;;;;;;10.46;100.00;97559.38;4997989;28;20514;-59
2023/10/09 00:35:39;;;;;;;5.03;4.63;;;;;;;10.46;100.00;97555.91;4996756;28;20200;-58
2023/10/09 00:38:15;;;;;;;4.87;4.40;;;;;;;10.51;100.00;97561.50;4998461;28;20267;-55
2023/10/09 00:40:46;;;;;;;6.07;5.67;;;;;;;10.51;100.00;97556.19;4913868;28;20754;-60
2023/10/09 00:43:14;;;;;;;5.30;4.90;;;;;;;10.54;100.00;97558.50;4996574;28;20201;-57
2023/10/09 00:45:44;;;;;;;4.90;4.60;;;;;;;10.54;100.00;97539.94;4991599;28;20263;-59
2023/10/09 00:48:23;;;;;;;5.70;5.17;;;;;;;10.52;100.00;97540.13;4997781;28;20256;-59
2023/10/09 00:50:53;;;;;;;4.67;4.33;;;;;;;10.55;100.00;97541.59;4991595;28;20813;-58
2023/10/09 00:53:30;;;;;;;5.77;5.37;;;;;;;10.53;100.00;97533.00;4996750;28;20209;-60
2023/10/09 00:56:11;;;;;;;5.60;5.20;;;;;;;10.55;100.00;97520.41;4990683;28;20240;-60
2023/10/09 00:58:40;;;;;;;5.10;4.70;;;;;;;10.42;100.00;97516.53;4995255;28;20308;-59
2023/10/09 01:01:15;;;;;;;5.67;5.27;;;;;;;10.28;100.00;97504.81;4942259;28;20343;-59
2023/10/09 01:03:45;;;;;;;5.53;5.23;;;;;;;10.31;100.00;97508.09;4996525;28;20240;-59
2023/10/09 01:06:20;;;;;;;5.13;4.83;;;;;;;10.26;100.00;97498.88;4994488;28;20209;-57
2023/10/09 01:09:06;;;;;;;6.00;5.13;;;;;;;10.24;100.00;97497.38;4931943;28;20263;-60
2023/10/09 01:11:47;;;;;;;5.77;5.27;;;;;;;10.26;100.00;97498.03;4991773;28;20324;-56
2023/10/09 01:14:15;;;;;;;5.83;5.17;;;;;;;10.23;100.00;97485.13;4914993;28;20636;-57
2023/10/09 01:16:43;;;;;;;6.00;5.47;;;;;;;10.10;100.00;97489.19;4993960;28;20200;-58
2023/10/09 01:19:20;;;;;;;5.83;5.43;;;;;;;10.09;100.00;97492.81;4993296;28;20224;-57
2023/10/09 01:21:50;;;;;;;6.07;5.47;;;;;;;10.10;100.00;97485.69;4983974;28;20284;-55
2023/10/09 01:24:20;;;;;;;6.43;6.00;;;;;;;10.09;100.00;97482.25;4953463;28;20300;-55
2023/10/09 01:26:49;;;;;;;5.37;4.93;;;;;;;10.12;100.00;97478.41;4991638;28;20204;-54
2023/10/09 01:29:18;;;;;;;4.80;4.43;;;;;;;10.14;100.00;97479.88;4992925;28;20446;-59
2023/10/09 01:31:54;;;;;;;6.63;6.03;;;;;;;10.16;100.00;97478.88;4993362;28;20416;-58
2023/10/09 01:34:38;;;;;;;6.20;5.70;;;;;;;10.14;100.00;97484.34;4941687;28;20226;-56
2023/10/09 01:37:11;;;;;;;6.50;6.00;;;;;;;10.20;100.00;97475.69;4998897;28;20205;-59
2023/10/09 01:39:42;;;;;;;6.20;5.70;;;;;;;10.20;100.00;97478.34;4987103;28;20224;-57
2023/10/09 01:42:10;;;;;;;6.83;6.23;;;;;;;10.20;100.00;97481.00;4995517;28;20212;-55
2023/10/09 01:44:43;;;;;;;6.63;6.13;;;;;;;10.17;100.00;97467.31;4989365;28;20280;-60
2023/10/09 01:47:15;;;;;;;5.93;5.43;;;;;;;10.23;100.00;97467.44;4999228;28;20204;-57
2023/10/09 01:49:43;;;;;;;6.53;6.03;;;;;;;10.20;100.00;97477.53;4908866;28;20335;-58
2023/10/09 01:52:15;;;;;;;6.40;6.00;;;;;;;10.24;100.00;97473.53;4995360;28;20205;-57
2023/10/09 01:54:48;;;;;;;6.97;6.37;;;;;;;10.27;100.00;97471.38;4952993;28;20562;-55
2023/10/09 01:57:22;;;;;;;6.57;6.07;;;;;;;10.39;100.00;97469.13;4993688;28;20217;-56
2023/10/09 01:59:53;;;;;;;7.57;5.97;;;;;;;10.43;100.00;97456.41;4989349;28;20320;-56
2023/10/09 02:02:33;;;;;;;6.43;5.83;;;;;;;10.46;100.00;97445.44;4996602;28;20751;-54
2023/10/09 02:05:10;;;;;;;6.10;5.70;;;;;;;10.53;100.00;97450.88;4939655;28;20228;-54
2023/10/09 02:07:51;;;;;;;7.37;6.60;;;;;;;10.45;100.00;97435.84;4986372;28;20738;-58
2023/10/09 02:10:32;;;;;;;6.20;5.70;;;;;;;10.63;100.00;97448.00;4966114;28;20604;-60
2023/10/09 02:13:06;;;;;;;6.37;5.77;;;;;;;10.51;100.00;97447.59;4993306;28;20336;-60
2023/10/09 02:15:51;;;;;;;6.43;6.03;;;;;;;10.56;100.00;97435.44;4993374;28;20208;-57
2023/10/09 02:18:26;;;;;;;6.20;5.63;;;;;;;10.60;100.00;97437.72;4992983;28;20219;-55
2023/10/09 02:21:13;;;;;;;6.13;5.63;;;;;;;10.51;100.00;97432.50;4997410;28;20289;-55
2023/10/09 02:23:46;;;;;;;6.17;5.67;;;;;;;10.56;100.00;97426.69;4911589;28;20248;-59
2023/10/09 02:26:19;;;;;;;5.43;5.03;;;;;;;10.58;100.00;97437.91;4997924;28;20201;-55
2023/10/09 02:28:52;;;;;;;6.53;5.93;;;;;;;10.60;100.00;97430.63;4957788;28;20311;-58
2023/10/09 02:31:23;;;;;;;6.33;5.83;;;;;;;10.64;100.00;97426.59;4994108;28;20298;-59
2023/10/09 02:33:53;;;;;;;6.77;6.27;;;;;;;10.59;100.00;97413.06;4936183;28;20213;-53
2023/10/09 02:36:21;;;;;;;6.90;6.30;;;;;;;10.52;100.00;97425.38;4996409;28;20205;-55
2023/10/09 02:38:52;;;;;;;7.50;6.80;;;;;;;10.57;100.00;97421.19;4989383;28;20304;-56
2023/10/09 02:41:28;;;;;;;6.83;6.23;;;;;;;10.58;100.00;97416.72;4994246;28;20220;-57
2023/10/09 02:43:56;;;;;;;7.13;6.53;;;;;;;10.59;100.00;97421.00;4939237;28;20295;-58
2023/10/09 02:46:30;;;;;;;6.83;6.33;;;;;;;10.55;100.00;97411.78;4991874;28;20223;-58
2023/10/09 02:48:58;;;;;;;6.20;5.80;;;;;;;10.71;100.00;97421.44;4966688;28;20268;-59
2023/10/09 02:51:33;;;;;;;7.10;6.20;;;;;;;10.74;100.00;97414.91;4991713;28;21026;-59
2023/10/09 02:54:17;;;;;;;6.70;6.20;;;;;;;10.69;100.00;97408.34;4988098;28;20335;-56
2023/10/09 02:56:54;;;;;;;7.07;6.47;;;;;;;10.78;100.00;97397.66;4974927;28;20255;-60
2023/10/09 02:59:23;;;;;;;7.40;6.70;;;;;;;10.81;100.00;97394.69;4943046;28;20229;-59
2023/10/09 03:01:52;;;;;;;6.90;6.40;;;;;;;10.75;100.00;97382.13;4991346;28;20251;-58
2023/10/09 03:04:23;;;;;;;6.80;6.20;;;;;;;10.82;100.00;97388.38;4959424;28;20296;-55
2023/10/09 03:06:53;;;;;;;6.23;5.83;;;;;;;10.86;100.00;97379.84;4992418;28;20205;-60
2023/10/09 03:09:26;;;;;;;8.67;7.67;;;;;;;10.89;100.00;97384.00;4990911;28;20987;-56
2023/10/09 03:12:01;;;;;;;6.67;6.17;;;;;;;10.82;100.00;97372.47;4975575;28;20221;-59
2023/10/09 03:14:31;;;;;;;7.10;6.60;;;;;;;10.80;100.00;97366.53;4974316;28;20208;-58
2023/10/09 03:16:59;;;;;;;6.70;6.10;;;;;;;10.81;100.00;97363.69;4964421;28;21107;-59
2023/10/09 03:19:29;;;;;;;7.87;6.67;;;;;;;10.81;100.00;97368.16;4972386;28;20845;-58
2023/10/09 03:21:57;;;;;;;6.47;5.87;;;;;;;10.85;100.00;97375.56;4992282;28;20294;-57
2023/10/09 03:24:27;;;;;;;6.83;6.33;;;;;;;10.81;100.00;97368.97;4993586;28;20664;-56
2023/10/09 03:26:56;;;;;;;7.43;6.67;;;;;;;10.79;100.00;97370.16;4987209;28;20797;-58
2023/10/09 03:29:24;;;;;;;7.20;6.70;;;;;;;10.83;100.00;97379.41;4910539;28;20229;-54
2023/10/09 03:31:53;;;;;;;7.30;6.53;;;;;;;10.88;100.00;97378.84;4938930;28;20258;-57
2023/10/09 03:34:20;;;;;;;7.57;6.83;;;;;;;10.91;100.00;97376.66;4997810;28;20806;-58
2023/10/09 03:36:51;;;;;;;7.20;6.60;;;;;;;10.93;100.00;97376.47;4995898;28;20292;-56
2023/10/09 03:39:25;;;;;;;6.87;6.27;;;;;;;10.98;100.00;97374.94;4999601;28;20291;-59
2023/10/09 03:41:54;;;;;;;6.73;6.23;;;;;;;10.91;100.00;97379.31;4989999;28;20244;-59
2023/10/09 03:44:23;;;;;;;7.27;6.67;;;;;;;10.94;100.00;97378.97;4938312;28;20223;-59
2023/10/09 03:46:51;;;;;;;7.17;6.57;;;;;;;10.94;100.00;97378.97;4995288;28;20205;-57
2023/10/09 03:49:25;;;;;;;7.00;6.50;;;;;;;10.93;100.00;97373.81;4993520;28;20212;-59
2023/10/09 03:51:55;;;;;;;7.07;6.43;;;;;;;10.95;100.00;97377.94;4996935;28;20823;-57
2023/10/09 03:54:24;;;;;;;8.77;7.97;;;;;;;10.86;100.00;97366.59;4944018;28;20754;-59
2023/10/09 03:56:54;;;;;;;7.53;6.83;;;;;;;10.86;100.00;97366.59;4996454;28;20583;-59
2023/10/09 03:59:26;;;;;;;7.83;7.03;;;;;;;10.80;100.00;97363.88;4912410;28;20275;-59
2023/10/09 04:01:54;;;;;;;7.93;7.07;;;;;;;10.78;100.00;97358.75;4989616;28;20213;-58
2023/10/09 04:04:23;;;;;;;7.83;7.23;;;;;;;10.75;100.00;97358.25;4938534;28;20728;-56
2023/10/09 04:06:51;;;;;;;7.13;6.63;;;;;;;10.81;100.00;97360.22;4995902;28;20209;-60
2023/10/09 04:09:35;;;;;;;7.23;6.53;;;;;;;10.71;100.00;97353.31;4988133;28;20279;-56
2023/10/09 04:12:24;;;;;;;7.77;7.07;;;;;;;10.84;100.00;97358.00;4995277;28;20738;-59
2023/10/09 04:14:57;;;;;;;8.47;7.60;;;;;;;10.83;100.00;97347.59;4945012;28;20209;-59
2023/10/09 04:17:35;;;;;;;10.63;7.37;;;;;;;10.78;100.00;97337.53;4996286;28;20751;-60
2023/10/09 04:22:59;;;;;;;7.90;7.07;;;;;;;10.83;100.00;97316.59;4996937;28;20283;-55
2023/10/09 04:25:28;;;;;;;7.50;6.63;;;;;;;10.78;100.00;97305.72;4994889;28;20288;-57
2023/10/09 04:28:08;;;;;;;7.00;6.40;;;;;;;10.66;100.00;97307.19;4994882;28;20223;-57
2023/10/09 04:30:42;;;;;;;7.70;6.93;;;;;;;10.61;100.00;97309.56;4913550;28;20244;-55
2023/10/09 04:33:27;;;;;;;8.30;7.43;;;;;;;10.64;100.00;97315.31;4995729;28;20207;-57
2023/10/09 04:38:38;;;;;;;8.30;7.50;;;;;;;10.66;100.00;97318.59;4994776;28;20221;-60
2023/10/09 04:41:07;;;;;;;7.67;6.97;;;;;;;10.73;100.00;97320.53;4991237;28;20267;-59
2023/10/09 04:43:34;;;;;;;7.87;7.07;;;;;;;10.69;100.00;97312.94;4935561;28;20300;-59
2023/10/09 04:46:12;;;;;;;8.60;7.67;;;;;;;10.67;100.00;97317.59;4997232;28;20201;-58
2023/10/09 04:48:45;;;;;;;7.83;7.13;;;;;;;10.68;100.00;97306.00;4942949;28;20225;-58
2023/10/09 04:51:21;;;;;;;7.53;6.83;;;;;;;10.74;100.00;97306.28;4995386;28;20224;-59
2023/10/09 04:53:59;;;;;;;8.20;7.37;;;;;;;10.66;100.00;97305.34;4989872;28;20726;-61
2023/10/09 04:56:31;;;;;;;7.80;7.20;;;;;;;10.59;100.00;97299.13;4994757;28;20918;-61
2023/10/09 04:59:07;;;;;;;8.50;7.67;;;;;;;10.61;100.00;97289.19;4989896;28;22008;-55
2023/10/09 05:01:43;;;;;;;8.27;7.50;;;;;;;10.57;100.00;97291.34;4965138;28;20243;-57
2023/10/09 05:04:29;;;;;;;8.10;7.47;;;;;;;10.58;100.00;97297.50;4969847;28;20276;-57
2023/10/09 05:06:57;;;;;;;8.47;7.77;;;;;;;10.63;100.00;97291.66;4992330;28;20227;-60
2023/10/09 05:09:24;;;;;;;8.07;7.43;;;;;;;10.59;100.00;97293.84;4994236;28;20308;-54
2023/10/09 05:11:59;;;;;;;9.13;8.23;;;;;;;10.54;100.00;97289.06;4994854;28;20230;-60
2023/10/09 05:14:38;;;;;;;9.10;8.20;;;;;;;10.53;100.00;97294.56;5001506;28;20632;-56
2023/10/09 05:17:15;;;;;;;8.80;7.90;;;;;;;10.54;100.00;97290.91;4995339;28;20197;-58
2023/10/09 05:19:54;;;;;;;9.67;8.67;;;;;;;10.54;100.00;97296.22;4930935;28;20750;-57
2023/10/09 05:22:39;;;;;;;8.90;8.17;;;;;;;10.52;100.00;97292.94;4991499;28;20210;-56
2023/10/09 05:25:15;;;;;;;8.40;7.47;;;;;;;10.51;100.00;97289.44;4991366;28;20299;-55
2023/10/09 05:27:45;;;;;;;9.03;8.30;;;;;;;10.55;100.00;97301.31;4994018;28;20196;-57
2023/10/09 05:30:25;;;;;;;9.37;8.37;;;;;;;10.44;100.00;97298.31;4990986;28;20299;-54
2023/10/09 05:33:03;;;;;;;8.17;7.47;;;;;;;10.49;100.00;97303.88;4945259;28;20486;-60
2023/10/09 05:35:39;;;;;;;8.93;8.00;;;;;;;10.53;100.00;97300.69;4988620;28;20363;-55
2023/10/09 05:38:23;;;;;;;8.50;7.70;;;;;;;10.54;100.00;97309.47;4989231;28;20565;-59
2023/10/09 05:40:53;;;;;;;8.67;7.97;;;;;;;10.53;100.00;97310.47;4990557;28;20342;-58
2023/10/09 05:46:09;;;;;;;8.73;7.93;;;;;;;10.50;100.00;97311.63;4992107;28;20823;-60
2023/10/09 05:48:54;;;;;;;8.73;7.83;;;;;;;10.47;100.00;97313.84;4991360;28;20888;-53
2023/10/09 05:55:08;;;;;;;8.50;7.73;;;;;;;10.54;100.00;97328.81;4939147;28;20311;-56
2023/10/09 06:06:01;;;;;;;8.43;7.73;;;;;;;10.78;100.00;97329.59;4982902;28;20213;-59
2023/10/09 06:09:10;;;;;;;9.93;9.03;;;;;;;10.81;100.00;97317.81;4993230;28;20224;-58
2023/10/09 06:11:38;;;;;;;10.87;8.53;;;;;;;10.87;100.00;97325.03;4995650;28;20309;-60
2023/10/09 06:14:13;;;;;;;11.50;10.13;;;;;;;10.95;100.00;97324.09;4995660;28;20212;-54
2023/10/09 06:16:42;;;;;;;9.97;9.00;;;;;;;10.97;100.00;97338.81;4995991;28;20700;-54
2023/10/09 06:19:12;;;;;;;10.30;9.37;;;;;;;10.99;100.00;97341.31;4991342;28;20225;-57
2023/10/09 06:24:41;;;;;;;12.77;9.83;;;;;;;10.99;100.00;97328.88;4940112;28;20311;-58
2023/10/09 06:27:43;;;;;;;12.23;10.20;;;;;;;11.03;100.00;97336.44;4996240;28;20196;-59
2023/10/09 06:30:14;;;;;;;9.90;9.10;;;;;;;11.10;100.00;97327.59;4993922;28;20251;-57
2023/10/09 06:32:50;;;;;;;10.33;9.33;;;;;;;11.27;100.00;97341.47;4993455;28;21055;-60
2023/10/09 06:35:18;;;;;;;11.07;9.97;;;;;;;11.47;100.00;97335.56;4999657;28;20200;-61
2023/10/09 06:43:31;;;;;;;13.27;11.37;;;;;;;11.84;100.00;97338.25;4993088;28;20339;-57
2023/10/09 06:46:37;;;;;;;12.00;10.80;;;;;;;12.09;100.00;97341.38;4992151;28;20852;-59
2023/10/09 06:48:55;;;;;;;12.73;11.57;;;;;;;12.27;100.00;97340.09;4940988;28;20735;-57
2023/10/09 06:54:09;;;;;;;11.63;10.47;;;;;;;12.68;100.00;97347.38;4989617;28;20208;-53
2023/10/09 06:59:24;;;;;;;11.83;10.63;;;;;;;12.87;100.00;97323.78;4943698;28;20559;-59
2023/10/09 07:07:24;;;;;;;10.90;8.80;;;;;;;12.93;100.00;97314.22;4990893;28;20200;-58
2023/10/09 07:12:53;;;;;;;10.87;9.77;;;;;;;13.17;100.00;97318.22;4997523;28;20225;-59
2023/10/09 07:18:19;;;;;;;10.97;9.73;;;;;;;13.22;100.00;97315.81;4996166;28;20201;-59
2023/10/09 07:20:58;;;;;;;10.33;9.17;;;;;;;13.32;100.00;97326.09;4940935;28;20204;-58
2023/10/09 07:23:32;;;;;;;10.53;9.63;;;;;;;13.17;100.00;97331.53;4994984;28;20212;-58
2023/10/09 07:26:36;;;;;;;12.20;8.63;;;;;;;13.27;100.00;97329.31;4991784;28;20288;-56
2023/10/09 07:29:21;;;;;;;9.87;8.53;;;;;;;13.40;100.00;97354.34;4996159;28;20220;-56
2023/10/09 07:31:57;;;;;;;11.13;9.03;;;;;;;13.42;100.00;97342.53;4942199;28;20299;-60
2023/10/09 07:34:52;;;;;;;10.63;9.37;;;;;;;13.64;100.00;97346.91;4995693;28;20395;-60
2023/10/09 07:37:22;;;;;;;9.70;8.80;;;;;;;13.63;100.00;97348.72;4997569;28;20240;-56
2023/10/09 07:39:57;;;;;;;9.77;8.83;;;;;;;13.67;100.00;97338.50;4944581;28;20724;-59
2023/10/09 07:42:43;;;;;;;12.37;9.30;;;;;;;13.73;100.00;97332.38;4974400;28;20307;-57
2023/10/09 07:45:54;;;;;;;9.50;8.60;;;;;;;13.93;100.00;97326.31;4996786;28;20560;-59
2023/10/09 07:48:04;;;;;;;9.67;8.83;;;;;;;13.66;100.00;97327.06;4997278;28;20255;-60
2023/10/09 07:50:40;;;;;;;12.17;8.63;;;;;;;13.80;100.00;97322.56;4997196;28;20813;-56
2023/10/09 07:53:26;;;;;;;12.17;8.50;;;;;;;13.93;100.00;97323.63;4967510;28;20304;-61
2023/10/09 07:55:58;;;;;;;11.90;8.67;;;;;;;14.00;100.00;97322.59;4999245;28;20204;-57
2023/10/09 07:58:27;;;;;;;9.87;8.83;;;;;;;14.07;100.00;97333.28;4994658;28;20433;-59
2023/10/09 08:01:15;;;;;;;10.73;9.43;;;;;;;14.08;100.00;97342.13;4996419;28;20247;-58
2023/10/09 08:03:45;;;;;;;9.10;8.17;;;;;;;14.23;100.00;97348.06;4947263;28;20302;-59
2023/10/09 08:14:45;;;;;;;8.23;7.57;;;;;;;14.61;100.00;97358.13;4910749;28;20890;-58
2023/10/09 08:17:15;;;;;;;9.03;8.10;;;;;;;14.90;100.00;97365.94;4995988;28;20557;-57
2023/10/09 08:19:55;;;;;;;9.50;8.67;;;;;;;14.80;100.00;97360.19;4997453;28;20822;-57
2023/10/09 08:22:50;;;;;;;7.70;6.90;;;;;;;14.68;100.00;97370.63;4999318;28;20256;-58
2023/10/09 08:25:31;;;;;;;7.83;7.20;;;;;;;14.76;100.00;97367.78;4955998;28;20217;-58
2023/10/09 08:31:18;;;;;;;9.23;7.23;;;;;;;14.75;100.00;97358.97;4917205;29;20220;-57
2023/10/09 08:33:56;;;;;;;8.27;7.17;;;;;;;15.07;100.00;97362.84;4939106;28;20241;-57
2023/10/09 08:36:28;;;;;;;7.50;6.83;;;;;;;15.16;100.00;97356.25;4996253;28;20458;-57
2023/10/09 08:38:59;;;;;;;10.47;6.73;;;;;;;15.13;100.00;97354.00;4992395;28;20232;-57
2023/10/09 08:41:29;;;;;;;8.40;7.60;;;;;;;15.51;100.00;97352.44;4996600;28;20204;-56
2023/10/09 08:43:59;;;;;;;8.30;7.50;;;;;;;15.85;100.00;97356.59;4940025;28;20224;-59
2023/10/09 08:46:28;;;;;;;7.87;6.47;;;;;;;16.00;100.00;97344.81;4970502;28;20212;-58
2023/10/09 08:48:58;;;;;;;7.27;6.40;;;;;;;16.41;100.00;97351.53;4994588;28;20209;-60
2023/10/09 08:51:27;;;;;;;8.87;6.27;;;;;;;16.47;100.00;97357.88;4996658;28;21500;-55
2023/10/09 08:53:56;;;;;;;8.83;6.10;;;;;;;16.47;100.00;97352.53;4992833;28;20244;-60
2023/10/09 08:56:24;;;;;;;9.67;6.33;;;;;;;16.68;100.00;97363.91;4980565;28;20205;-57
2023/10/09 08:58:52;;;;;;;7.60;6.53;;;;;;;16.58;100.00;97349.13;4996463;28;20225;-56
2023/10/09 09:01:21;;;;;;;9.83;6.93;;;;;;;16.63;100.00;97351.16;5000681;28;20223;-59
2023/10/09 09:03:55;;;;;;;9.47;6.70;;;;;;;16.47;100.00;97349.84;4982488;28;21548;-58
2023/10/09 09:06:24;;;;;;;9.13;7.63;;;;;;;16.31;100.00;97354.72;4983927;28;20236;-59
2023/10/09 09:08:54;;;;;;;6.57;5.97;;;;;;;16.30;100.00;97354.91;4995580;28;20225;-58
2023/10/09 09:11:24;;;;;;;6.57;5.97;;;;;;;16.43;100.00;97365.50;4993291;28;20280;-59
2023/10/09 09:14:04;;;;;;;9.50;7.10;;;;;;;16.54;100.00;97357.84;4996136;28;20249;-60
2023/10/09 09:16:35;;;;;;;8.07;6.60;;;;;;;16.38;100.00;97360.00;4994739;28;20287;-58
2023/10/09 09:19:17;;;;;;;8.90;6.80;;;;;;;16.61;100.00;97354.06;4935110;28;20439;-59
2023/10/09 09:21:54;;;;;;;7.13;6.27;;;;;;;16.69;100.00;97358.31;4998466;28;20208;-55
2023/10/09 09:24:33;;;;;;;8.17;6.90;;;;;;;16.56;100.00;97363.78;4992084;28;20454;-57
2023/10/09 09:27:12;;;;;;;6.73;6.03;;;;;;;16.25;100.00;97368.13;4996485;28;20197;-56
2023/10/09 09:29:41;;;;;;;9.60;6.80;;;;;;;16.28;100.00;97363.13;4939165;28;20319;-57
2023/10/09 09:32:17;;;;;;;8.23;5.57;;;;;;;16.14;100.00;97369.63;4989131;28;20213;-59
2023/10/09 09:34:48;;;;;;;7.13;5.30;;;;;;;16.31;100.00;97383.28;4930495;28;20205;-56
2023/10/09 09:37:28;;;;;;;8.67;6.40;;;;;;;16.51;100.00;97360.94;4997458;28;20205;-54
2023/10/09 09:39:57;;;;;;;7.27;6.53;;;;;;;16.42;100.00;97379.09;4944762;28;20225;-58
2023/10/09 09:42:27;;;;;;;8.63;6.07;;;;;;;16.35;100.00;97374.63;4993362;28;20275;-59
2023/10/09 09:44:57;;;;;;;7.43;6.73;;;;;;;16.48;100.00;97392.44;4992515;28;20680;-55
2023/10/09 09:47:26;;;;;;;6.90;5.80;;;;;;;16.63;100.00;97381.41;4991392;28;20202;-57
2023/10/09 09:50:00;;;;;;;7.47;5.40;;;;;;;16.90;100.00;97391.09;4993056;28;20221;-59
2023/10/09 09:52:37;;;;;;;7.03;6.10;;;;;;;16.89;100.00;97384.09;4994446;28;20225;-56
2023/10/09 09:55:14;;;;;;;6.80;6.10;;;;;;;16.85;100.00;97381.03;4914888;28;20212;-57
2023/10/09 09:57:45;;;;;;;7.20;5.77;;;;;;;16.84;100.00;97383.91;4991756;28;20218;-56
2023/10/09 10:00:30;;;;;;;9.13;6.60;;;;;;;16.87;100.00;97392.31;4935885;28;20233;-59
2023/10/09 10:03:02;;;;;;;6.00;5.40;;;;;;;17.05;100.00;97380.06;4997056;28;20631;-60
2023/10/09 10:05:33;;;;;;;7.07;5.77;;;;;;;16.83;100.00;97385.78;4997462;28;20274;-56
2023/10/09 10:08:04;;;;;;;8.00;5.60;;;;;;;16.98;100.00;97393.50;4995513;28;20349;-58
2023/10/09 10:10:38;;;;;;;6.53;4.93;;;;;;;16.97;100.00;97399.88;4940119;28;20248;-61
2023/10/09 10:13:14;;;;;;;7.80;5.83;;;;;;;16.96;100.00;97392.88;4996912;28;20248;-60
2023/10/09 10:16:13;;;;;;;6.80;5.30;;;;;;;16.74;100.00;97397.81;4987480;28;20579;-61
2023/10/09 10:18:59;;;;;;;10.93;5.80;;;;;;;16.85;100.00;97383.69;4992269;28;20316;-58
2023/10/09 10:21:40;;;;;;;8.43;5.80;;;;;;;16.97;100.00;97401.72;4994732;28;20669;-59
2023/10/09 10:24:54;;;;;;;9.47;4.90;;;;;;;17.13;100.00;97406.53;4926176;28;20984;-60
2023/10/09 10:27:27;;;;;;;7.23;5.17;;;;;;;17.03;100.00;97404.38;4997305;28;20697;-59
2023/10/09 10:30:33;;;;;;;7.57;5.23;;;;;;;17.02;100.00;97400.03;4992094;28;20843;-57
2023/10/09 10:33:15;;;;;;;8.57;5.43;;;;;;;17.02;100.00;97385.84;4995738;28;20266;-58
2023/10/09 10:35:46;;;;;;;8.97;5.20;;;;;;;17.04;100.00;97378.41;4938637;28;20240;-57
2023/10/09 10:38:25;;;;;;;6.40;5.43;;;;;;;17.04;100.00;97360.50;4995235;28;20201;-59
2023/10/09 10:40:58;;;;;;;9.17;6.07;;;;;;;16.97;100.00;97351.69;4985597;28;20219;-56
2023/10/09 10:43:47;;;;;;;9.50;5.87;;;;;;;16.92;100.00;97368.41;4995532;28;20300;-60
2023/10/09 10:46:24;;;;;;;6.60;5.67;;;;;;;17.03;100.00;97366.88;4973920;28;20267;-56
2023/10/09 10:48:59;;;;;;;6.47;5.00;;;;;;;17.19;100.00;97383.41;4992038;28;20244;-60
2023/10/09 10:51:35;;;;;;;7.57;5.70;;;;;;;17.41;100.00;97401.72;4995912;28;20292;-57
2023/10/09 10:56:49;;;;;;;9.57;5.70;;;;;;;17.55;100.00;97397.84;4986791;28;20229;-58
2023/10/09 10:59:22;;;;;;;9.73;5.03;;;;;;;17.53;100.00;97396.47;4910143;28;20476;-57
2023/10/09 11:01:53;;;;;;;5.57;4.90;;;;;;;17.40;100.00;97394.75;4994312;28;20321;-57
2023/10/09 11:04:40;;;;;;;9.83;6.03;;;;;;;17.48;100.00;97397.13;4993738;28;20284;-58
2023/10/09 11:07:09;;;;;;;8.20;5.80;;;;;;;17.12;100.00;97398.72;4995790;28;20211;-54
2023/10/09 11:10:07;;;;;;;6.47;5.10;;;;;;;17.54;100.00;97384.69;4877554;28;22699;-56
2023/10/09 11:13:13;;;;;;;10.80;6.03;;;;;;;17.78;100.00;97391.81;4996601;28;20313;-57
2023/10/09 11:15:44;;;;;;;7.00;5.43;;;;;;;17.89;100.00;97382.19;4943956;28;20209;-57
2023/10/09 11:18:19;;;;;;;5.87;4.87;;;;;;;17.88;100.00;97395.84;4995095;28;20327;-56
2023/10/09 11:20:57;;;;;;;6.27;5.20;;;;;;;17.70;100.00;97389.44;4950774;28;20662;-59
2023/10/09 11:23:36;;;;;;;9.23;5.90;;;;;;;17.86;100.00;97393.38;4990234;28;20194;-57
2023/10/09 11:26:25;;;;;;;7.40;4.77;;;;;;;17.74;100.00;97385.25;4991229;28;20597;-59
2023/10/09 11:29:23;;;;;;;8.33;6.00;;;;;;;17.74;100.00;97365.69;5000559;28;20217;-59
2023/10/09 11:32:00;;;;;;;10.27;5.40;;;;;;;17.49;100.00;97367.44;4910959;28;20209;-57
2023/10/09 11:34:32;;;;;;;7.27;5.37;;;;;;;17.53;100.00;97365.13;4997573;28;20317;-59
2023/10/09 11:37:00;;;;;;;6.97;5.90;;;;;;;17.57;100.00;97357.47;4991162;28;20921;-58
2023/10/09 11:39:34;;;;;;;8.43;5.93;;;;;;;17.69;100.00;97361.00;4988145;28;20248;-60
2023/10/09 11:42:05;;;;;;;6.10;5.50;;;;;;;17.58;100.00;97341.13;4959648;28;20668;-56
2023/10/09 11:44:39;;;;;;;8.40;5.50;;;;;;;17.26;100.00;97319.91;4982907;28;20655;-59
2023/10/09 11:47:24;;;;;;;10.27;6.33;;;;;;;17.31;100.00;97314.69;4964828;28;20200;-58
2023/10/09 11:50:12;;;;;;;8.93;5.40;;;;;;;16.92;100.00;97314.06;4992914;28;20236;-59
2023/10/09 11:52:56;;;;;;;11.80;6.27;;;;;;;17.05;100.00;97313.16;4995172;28;20200;-59
2023/10/09 11:55:25;;;;;;;7.93;5.23;;;;;;;17.32;100.00;97313.66;4956368;28;21970;-59
2023/10/09 11:57:55;;;;;;;7.03;5.97;;;;;;;17.65;100.00;97301.72;4997699;28;20205;-58
2023/10/09 12:00:29;;;;;;;9.47;5.43;;;;;;;17.90;100.00;97298.06;4993689;28;20252;-58
2023/10/09 12:03:04;;;;;;;9.73;5.70;;;;;;;18.00;100.00;97286.78;4997886;28;21956;-59
2023/10/09 12:05:33;;;;;;;7.10;5.40;;;;;;;18.29;100.00;97292.34;4931315;28;20207;-58
2023/10/09 12:08:02;;;;;;;7.33;5.17;;;;;;;18.44;100.00;97304.50;4997949;28;20713;-60
2023/10/09 12:10:30;;;;;;;8.00;5.53;;;;;;;18.54;100.00;97306.59;4993768;28;20229;-56
2023/10/09 12:12:59;;;;;;;7.23;4.97;;;;;;;18.49;100.00;97308.13;4996674;28;20197;-59
2023/10/09 12:15:36;;;;;;;10.30;5.90;;;;;;;18.27;100.00;97318.59;4995144;28;20217;-56
2023/10/09 12:18:08;;;;;;;5.97;5.43;;;;;;;17.98;100.00;97334.44;4992594;28;20676;-60
2023/10/09 12:20:39;;;;;;;6.87;6.10;;;;;;;17.89;100.00;97359.94;4964476;28;20200;-58
2023/10/09 12:23:07;;;;;;;12.93;5.33;;;;;;;17.74;100.00;97357.66;4996002;28;20657;-60
2023/10/09 12:25:35;;;;;;;7.63;5.57;;;;;;;17.70;100.00;97351.13;4998046;28;20217;-60
2023/10/09 12:28:05;;;;;;;10.20;5.50;;;;;;;17.63;100.00;97325.25;4996260;28;20235;-61
2023/10/09 12:30:39;;;;;;;7.80;6.00;;;;;;;17.71;100.00;97309.88;4995259;28;20248;-60
2023/10/09 12:33:08;;;;;;;9.63;6.07;;;;;;;17.84;100.00;97293.63;4995103;28;20200;-61
2023/10/09 12:35:39;;;;;;;7.10;6.20;;;;;;;17.84;100.00;97292.81;4996074;28;20225;-58
2023/10/09 12:38:10;;;;;;;11.73;5.50;;;;;;;17.71;100.00;97288.44;4978053;28;20256;-60
2023/10/09 12:40:39;;;;;;;11.80;6.47;;;;;;;17.54;100.00;97296.28;4876840;28;20240;-56
2023/10/09 12:43:15;;;;;;;9.13;5.90;;;;;;;17.40;100.00;97317.88;4999147;28;20205;-55
2023/10/09 12:45:43;;;;;;;8.63;5.30;;;;;;;17.36;100.00;97332.75;4941435;28;20303;-60
2023/10/09 12:48:10;;;;;;;8.07;4.93;;;;;;;17.16;100.00;97378.50;4998327;28;20743;-57
2023/10/09 12:50:41;;;;;;;9.63;5.70;;;;;;;16.98;100.00;97384.63;4943079;28;20241;-57
2023/10/09 12:53:10;;;;;;;6.97;4.93;;;;;;;16.84;100.00;97403.47;4996223;28;20596;-57
2023/10/09 12:55:40;;;;;;;9.80;4.73;;;;;;;16.64;100.00;97425.84;4961031;28;20224;-58
2023/10/09 12:58:14;;;;;;;10.43;4.73;;;;;;;16.57;100.00;97426.94;4995127;28;20332;-57
2023/10/09 13:00:48;;;;;;;8.57;5.13;;;;;;;16.53;100.00;97431.88;4992338;28;20564;-59